Time;durP1;ratioP1;P1;durP2;ratioP2;P2;SDS_P1;SDS_P2;PMS_P1;PMS_P2;Temp;Humidity;BMP_temperature;BMP_pressure;BME280_temperature;BME280_humidity;BME280_pressure;Samples;Min_cycle;Max_cycle;Signal;HPM_P1;HPM_P2
2023/04/25 00:02:05;;;;;;;19.05;5.60;;;6.70;99.90;;;;;;5064881;28;20162;-79
2023/04/25 00:04:32;;;;;;;16.55;4.88;;;6.70;99.90;;;;;;5067148;28;20504;-80
2023/04/25 00:07:01;;;;;;;17.10;5.22;;;6.70;99.90;;;;;;5066127;28;20040;-80
2023/04/25 00:09:27;;;;;;;19.38;5.47;;;6.80;99.90;;;;;;5072406;28;20059;-79
2023/04/25 00:11:53;;;;;;;16.92;5.13;;;6.80;99.90;;;;;;5055000;28;20587;-79
2023/04/25 00:14:18;;;;;;;15.07;5.18;;;6.70;99.90;;;;;;5071987;28;20135;-80
2023/04/25 00:16:44;;;;;;;14.00;4.70;;;6.70;99.90;;;;;;5059053;28;20075;-80
2023/04/25 00:19:10;;;;;;;16.85;5.10;;;6.60;99.90;;;;;;5065026;28;20036;-80
2023/04/25 00:21:37;;;;;;;22.65;6.03;;;6.60;99.90;;;;;;5060788;28;20381;-80
2023/04/25 00:24:03;;;;;;;16.55;5.15;;;6.50;99.90;;;;;;5061600;28;20040;-80
2023/04/25 00:26:29;;;;;;;15.00;5.03;;;6.40;99.90;;;;;;5070485;28;20051;-80
2023/04/25 00:28:55;;;;;;;20.48;5.85;;;6.40;99.90;;;;;;5045734;28;20031;-80
2023/04/25 00:31:21;;;;;;;18.25;5.15;;;6.40;99.90;;;;;;5070058;28;20032;-80
2023/04/25 00:33:47;;;;;;;16.27;5.03;;;6.30;99.90;;;;;;5068163;28;20296;-80
2023/04/25 00:36:13;;;;;;;18.55;5.75;;;6.20;99.90;;;;;;5068288;28;20041;-80
2023/04/25 00:38:39;;;;;;;17.08;5.50;;;6.10;99.90;;;;;;5070725;28;20535;-80
2023/04/25 00:41:08;;;;;;;15.60;5.40;;;6.10;99.90;;;;;;5060618;28;20040;-80
2023/04/25 00:43:35;;;;;;;16.30;5.13;;;6.00;99.90;;;;;;5066162;28;21813;-79
2023/04/25 00:46:01;;;;;;;16.48;5.30;;;6.00;99.90;;;;;;5076850;28;20040;-80
2023/04/25 00:48:27;;;;;;;16.17;5.43;;;5.90;99.90;;;;;;5066479;28;20033;-80
2023/04/25 00:50:55;;;;;;;22.08;5.50;;;5.90;99.90;;;;;;5065500;28;20067;-80
2023/04/25 00:53:26;;;;;;;14.68;5.45;;;5.80;99.90;;;;;;5062609;28;20115;-79
2023/04/25 00:55:52;;;;;;;17.58;5.35;;;5.80;99.90;;;;;;5069602;28;20404;-80
2023/04/25 00:58:19;;;;;;;18.45;5.22;;;5.70;99.90;;;;;;5059720;28;20063;-80
2023/04/25 01:00:46;;;;;;;16.08;5.28;;;5.70;99.90;;;;;;5063986;28;20047;-80
2023/04/25 01:03:16;;;;;;;14.80;5.13;;;5.70;99.90;;;;;;5071905;28;20099;-80
2023/04/25 01:05:42;;;;;;;18.30;5.20;;;5.60;99.90;;;;;;5073848;28;20119;-80
2023/04/25 01:08:08;;;;;;;16.83;5.38;;;5.60;99.90;;;;;;5068808;28;20032;-79
2023/04/25 01:10:34;;;;;;;19.58;4.97;;;5.60;99.90;;;;;;5045765;28;20044;-80
2023/04/25 01:13:00;;;;;;;16.38;5.90;;;5.60;99.90;;;;;;5075129;28;20484;-80
2023/04/25 01:15:25;;;;;;;19.20;4.97;;;5.60;99.90;;;;;;5072182;28;20039;-80
2023/04/25 01:17:52;;;;;;;14.27;5.13;;;5.70;99.90;;;;;;5072206;28;20039;-79
2023/04/25 01:20:22;;;;;;;15.98;5.68;;;5.70;99.90;;;;;;5070397;28;20085;-80
2023/04/25 01:22:49;;;;;;;18.25;5.82;;;5.60;99.90;;;;;;5048047;28;20044;-80
2023/04/25 01:25:14;;;;;;;15.07;5.28;;;5.60;99.90;;;;;;5069692;28;20080;-80
2023/04/25 01:27:40;;;;;;;14.23;5.45;;;5.60;99.90;;;;;;5073056;28;20378;-79
2023/04/25 01:30:07;;;;;;;18.92;5.07;;;5.60;99.90;;;;;;5066944;28;20550;-80
2023/04/25 01:32:38;;;;;;;13.02;5.18;;;5.60;99.90;;;;;;5063543;28;20040;-80
2023/04/25 01:35:09;;;;;;;12.93;4.93;;;5.60;99.90;;;;;;5067930;28;20036;-80
2023/04/25 01:37:41;;;;;;;10.38;4.97;;;5.60;99.90;;;;;;5061061;28;20477;-80
2023/04/25 01:40:09;;;;;;;19.35;6.00;;;5.60;99.90;;;;;;5069559;28;20039;-79
2023/04/25 01:42:39;;;;;;;19.02;5.50;;;5.50;99.90;;;;;;5063636;28;20071;-80
2023/04/25 01:45:06;;;;;;;14.18;5.40;;;5.50;99.90;;;;;;5056259;28;20349;-80
2023/04/25 01:47:32;;;;;;;12.68;5.50;;;5.50;99.90;;;;;;5064564;28;20036;-80
2023/04/25 01:49:58;;;;;;;14.43;5.38;;;5.40;99.90;;;;;;5074677;28;20035;-79
2023/04/25 01:52:23;;;;;;;14.55;4.93;;;5.40;99.90;;;;;;5061523;28;20092;-80
2023/04/25 01:54:50;;;;;;;18.33;5.65;;;5.40;99.90;;;;;;5070247;28;20353;-80
2023/04/25 01:57:16;;;;;;;16.40;5.32;;;5.40;99.90;;;;;;5065218;28;20032;-80
2023/04/25 01:59:43;;;;;;;15.63;5.20;;;5.30;99.90;;;;;;5064407;28;20066;-80
2023/04/25 02:02:09;;;;;;;24.80;5.55;;;5.40;99.90;;;;;;5070925;28;20044;-80
2023/04/25 02:04:35;;;;;;;18.95;5.82;;;5.40;99.90;;;;;;5062025;28;20063;-80
2023/04/25 02:07:00;;;;;;;16.65;5.68;;;5.50;99.90;;;;;;5063998;28;20378;-80
2023/04/25 02:09:26;;;;;;;16.35;5.15;;;5.50;99.90;;;;;;5053939;28;20028;-80
2023/04/25 02:11:53;;;;;;;13.98;5.20;;;5.50;99.90;;;;;;5061168;28;20119;-80
2023/04/25 02:14:18;;;;;;;19.75;5.45;;;5.50;99.90;;;;;;5073588;28;20096;-80
2023/04/25 02:16:44;;;;;;;17.42;5.72;;;5.60;99.90;;;;;;5073724;28;20036;-79
2023/04/25 02:19:10;;;;;;;13.25;5.13;;;5.60;99.90;;;;;;5073101;28;20055;-80
2023/04/25 02:21:36;;;;;;;16.15;5.03;;;5.60;99.90;;;;;;5068892;28;20414;-80
2023/04/25 02:24:02;;;;;;;12.05;5.35;;;5.60;99.90;;;;;;5072003;28;20043;-80
2023/04/25 02:26:29;;;;;;;15.93;6.03;;;5.60;99.90;;;;;;5053491;28;20032;-81
2023/04/25 02:28:56;;;;;;;14.27;4.82;;;5.60;99.90;;;;;;5059660;28;20512;-80
2023/04/25 02:31:21;;;;;;;12.60;5.13;;;5.70;99.90;;;;;;5068268;28;20074;-81
2023/04/25 02:33:47;;;;;;;18.92;5.50;;;5.70;99.90;;;;;;5064516;28;20064;-81
2023/04/25 02:36:13;;;;;;;10.70;4.75;;;5.70;99.90;;;;;;5063017;28;20381;-81
2023/04/25 02:38:39;;;;;;;15.00;4.80;;;5.70;99.90;;;;;;5056295;28;20035;-80
2023/04/25 02:41:05;;;;;;;13.25;4.65;;;5.70;99.90;;;;;;5068223;28;20055;-80
2023/04/25 02:43:30;;;;;;;11.25;4.75;;;5.70;99.90;;;;;;5064122;28;20035;-80
2023/04/25 02:45:56;;;;;;;15.00;5.22;;;5.70;99.90;;;;;;5067542;28;20082;-80
2023/04/25 02:48:21;;;;;;;12.63;5.07;;;5.70;99.90;;;;;;5070257;28;20040;-81
2023/04/25 02:50:47;;;;;;;12.88;4.25;;;5.70;99.90;;;;;;5046264;28;20131;-80
2023/04/25 02:53:12;;;;;;;21.80;5.00;;;5.70;99.90;;;;;;5054141;28;20035;-80
2023/04/25 02:55:38;;;;;;;12.38;3.78;;;5.70;99.90;;;;;;5078743;28;20032;-80
2023/04/25 02:58:04;;;;;;;17.13;4.43;;;5.70;99.90;;;;;;5069490;28;20072;-81
2023/04/25 03:00:30;;;;;;;9.82;4.43;;;5.70;99.90;;;;;;5060684;28;20036;-80
2023/04/25 03:02:56;;;;;;;12.63;4.30;;;5.70;99.90;;;;;;5041022;28;20037;-80
2023/04/25 03:05:21;;;;;;;10.23;4.18;;;5.70;99.90;;;;;;5084322;28;20162;-80
2023/04/25 03:07:47;;;;;;;10.68;3.50;;;5.70;99.90;;;;;;5083298;28;20062;-81
2023/04/25 03:10:13;;;;;;;16.00;4.53;;;5.70;99.90;;;;;;5071199;28;20040;-81
2023/04/25 03:12:38;;;;;;;10.93;3.30;;;5.70;99.90;;;;;;5054331;28;20414;-81
2023/04/25 03:15:05;;;;;;;12.35;4.25;;;5.70;99.90;;;;;;5058164;28;20036;-80
2023/04/25 03:17:30;;;;;;;11.10;3.58;;;5.70;99.90;;;;;;5066405;28;20035;-81
2023/04/25 03:19:57;;;;;;;15.02;3.50;;;5.70;99.90;;;;;;5072664;28;20028;-80
2023/04/25 03:22:23;;;;;;;7.85;3.25;;;5.70;99.90;;;;;;5043196;28;20045;-80
2023/04/25 03:24:50;;;;;;;18.42;3.78;;;5.70;99.90;;;;;;5068146;28;20123;-80
2023/04/25 03:27:16;;;;;;;10.68;3.05;;;5.70;99.90;;;;;;5074894;28;20082;-81
2023/04/25 03:29:41;;;;;;;12.45;3.00;;;5.70;99.90;;;;;;5068612;28;20067;-79
2023/04/25 03:32:07;;;;;;;9.95;3.35;;;5.70;99.90;;;;;;5072563;28;20067;-81
2023/04/25 03:34:33;;;;;;;10.52;3.30;;;5.70;99.90;;;;;;5070025;28;20028;-80
2023/04/25 03:36:59;;;;;;;8.68;3.22;;;5.70;99.90;;;;;;5063607;28;20035;-80
2023/04/25 03:39:25;;;;;;;10.88;2.78;;;5.70;99.90;;;;;;5073241;28;20527;-81
2023/04/25 03:41:50;;;;;;;9.43;2.90;;;5.60;99.90;;;;;;5059811;28;20067;-80
2023/04/25 03:44:16;;;;;;;8.65;3.45;;;5.70;99.90;;;;;;5056389;28;20462;-79
2023/04/25 03:46:42;;;;;;;9.82;2.88;;;5.60;99.90;;;;;;5056232;28;20075;-80
2023/04/25 03:49:07;;;;;;;7.10;3.08;;;5.60;99.90;;;;;;5067059;28;20082;-79
2023/04/25 03:51:33;;;;;;;15.80;3.55;;;5.60;99.90;;;;;;5068483;28;20036;-79
2023/04/25 03:53:58;;;;;;;12.35;3.20;;;5.60;99.90;;;;;;5065224;28;20047;-80
2023/04/25 03:56:24;;;;;;;8.77;2.75;;;5.60;99.90;;;;;;5066314;28;20347;-80
2023/04/25 03:58:50;;;;;;;11.77;3.13;;;5.60;99.90;;;;;;5048217;28;20036;-80
2023/04/25 04:01:15;;;;;;;8.93;2.75;;;5.60;99.90;;;;;;5071989;28;20461;-79
2023/04/25 04:03:41;;;;;;;8.55;2.58;;;5.50;99.90;;;;;;5063843;28;20039;-79
2023/04/25 04:06:08;;;;;;;6.63;2.85;;;5.50;99.90;;;;;;5071197;28;20702;-79
2023/04/25 04:08:34;;;;;;;7.18;2.20;;;5.50;99.90;;;;;;5061340;28;20115;-79
2023/04/25 04:11:00;;;;;;;11.70;2.83;;;5.50;99.90;;;;;;5048052;28;20198;-79
2023/04/25 04:13:27;;;;;;;5.63;2.25;;;5.40;99.90;;;;;;5069372;28;20036;-79
2023/04/25 04:15:52;;;;;;;7.35;2.15;;;5.40;99.90;;;;;;5062708;28;20050;-79
2023/04/25 04:18:18;;;;;;;7.95;2.42;;;5.40;99.90;;;;;;5065815;28;20438;-79
2023/04/25 04:20:44;;;;;;;8.00;2.60;;;5.40;99.90;;;;;;5068367;28;20040;-79
2023/04/25 04:23:10;;;;;;;6.72;2.30;;;5.40;99.90;;;;;;5062396;28;20036;-78
2023/04/25 04:25:36;;;;;;;6.32;1.75;;;5.30;99.90;;;;;;5059864;28;20430;-79
2023/04/25 04:28:01;;;;;;;5.25;1.80;;;5.30;99.90;;;;;;5071803;28;20035;-79
2023/04/25 04:30:30;;;;;;;8.05;2.10;;;5.30;99.90;;;;;;5065036;28;20506;-79
2023/04/25 04:32:56;;;;;;;7.57;2.03;;;5.30;99.90;;;;;;5060379;28;20036;-79
2023/04/25 04:35:23;;;;;;;7.72;2.00;;;5.30;99.90;;;;;;5064162;28;20032;-79
2023/04/25 04:37:49;;;;;;;5.45;1.85;;;5.30;99.90;;;;;;5069985;28;20496;-79
2023/04/25 04:40:15;;;;;;;6.53;1.90;;;5.30;99.90;;;;;;5072843;28;20478;-78
2023/04/25 04:42:42;;;;;;;6.32;1.98;;;5.20;99.90;;;;;;5067936;28;20115;-79
2023/04/25 04:45:08;;;;;;;3.33;1.60;;;5.20;99.90;;;;;;5062226;28;20040;-80
2023/04/25 04:47:36;;;;;;;7.53;2.10;;;5.30;99.90;;;;;;5071962;28;20477;-79
2023/04/25 04:50:03;;;;;;;3.47;1.73;;;5.30;99.90;;;;;;5063890;28;20725;-79
2023/04/25 04:52:29;;;;;;;5.78;1.80;;;5.30;99.90;;;;;;5063794;28;20123;-79
2023/04/25 04:54:55;;;;;;;6.57;2.28;;;5.30;99.90;;;;;;5047312;28;20120;-79
2023/04/25 04:57:21;;;;;;;6.35;1.85;;;5.30;99.90;;;;;;5048895;28;20040;-78
2023/04/25 04:59:46;;;;;;;6.93;2.22;;;5.30;99.90;;;;;;5048923;28;20032;-79
2023/04/25 05:02:12;;;;;;;5.53;2.10;;;5.30;99.90;;;;;;5079990;28;20089;-79
2023/04/25 05:04:38;;;;;;;7.35;1.90;;;5.40;99.90;;;;;;5059201;28;20037;-79
2023/04/25 05:07:03;;;;;;;11.20;2.47;;;5.40;99.90;;;;;;5063888;28;20819;-78
2023/04/25 05:09:29;;;;;;;6.40;1.85;;;5.50;99.90;;;;;;5060355;28;20035;-79
2023/04/25 05:11:55;;;;;;;7.65;2.60;;;5.50;99.90;;;;;;5067723;28;20054;-80
2023/04/25 05:14:21;;;;;;;9.63;2.47;;;5.50;99.90;;;;;;5048628;28;20036;-80
2023/04/25 05:16:47;;;;;;;12.20;2.60;;;5.60;99.90;;;;;;5060764;28;21194;-78
2023/04/25 05:19:13;;;;;;;11.20;2.38;;;5.60;99.90;;;;;;5064311;28;20035;-79
2023/04/25 05:21:38;;;;;;;8.13;2.15;;;5.60;99.90;;;;;;5064014;28;20048;-80
2023/04/25 05:24:04;;;;;;;6.90;2.22;;;5.60;99.90;;;;;;5067168;28;20047;-80
2023/04/25 05:26:32;;;;;;;4.28;2.05;;;5.70;99.90;;;;;;5056862;28;20032;-80
2023/04/25 05:28:58;;;;;;;7.35;3.08;;;5.70;99.90;;;;;;5066968;28;20032;-78
2023/04/25 05:31:23;;;;;;;9.30;2.15;;;5.70;99.90;;;;;;5084854;28;20032;-79
2023/04/25 05:33:49;;;;;;;6.53;2.22;;;5.80;99.90;;;;;;5064115;28;20028;-79
2023/04/25 05:36:14;;;;;;;8.30;2.55;;;5.80;99.90;;;;;;5048940;28;20055;-79
2023/04/25 05:38:40;;;;;;;6.13;2.22;;;5.80;99.90;;;;;;5057597;28;20064;-79
2023/04/25 05:41:06;;;;;;;10.85;2.63;;;5.80;99.90;;;;;;5052460;28;20040;-80
2023/04/25 05:43:31;;;;;;;7.75;2.55;;;5.80;99.90;;;;;;5056096;28;20546;-79
2023/04/25 05:45:57;;;;;;;7.05;2.25;;;5.80;99.90;;;;;;5065644;28;20042;-79
2023/04/25 05:48:22;;;;;;;7.82;2.40;;;5.80;99.90;;;;;;5066084;28;20055;-79
2023/04/25 05:50:48;;;;;;;12.10;2.38;;;5.80;99.90;;;;;;5056586;28;20374;-80
2023/04/25 05:53:13;;;;;;;8.40;3.17;;;5.80;99.90;;;;;;5068106;28;20566;-80
2023/04/25 05:55:39;;;;;;;5.18;2.47;;;5.80;99.90;;;;;;5062742;28;20090;-80
2023/04/25 05:58:06;;;;;;;6.75;2.45;;;5.80;99.90;;;;;;5056028;28;20840;-80
2023/04/25 06:00:32;;;;;;;8.88;3.40;;;5.90;99.90;;;;;;5056088;28;20666;-80
2023/04/25 06:02:58;;;;;;;6.70;2.65;;;6.00;99.90;;;;;;5053094;28;20070;-81
2023/04/25 06:05:23;;;;;;;11.13;2.65;;;6.10;99.90;;;;;;5058567;28;20040;-80
2023/04/25 06:07:49;;;;;;;5.60;2.42;;;6.30;99.90;;;;;;5057433;28;20086;-80
2023/04/25 06:10:15;;;;;;;9.73;3.13;;;6.40;99.90;;;;;;5066422;28;20082;-79
2023/04/25 06:12:40;;;;;;;7.90;2.20;;;6.50;99.90;;;;;;5062092;28;20024;-80
2023/04/25 06:15:06;;;;;;;9.23;2.80;;;6.50;99.90;;;;;;5070796;28;20047;-80
2023/04/25 06:17:33;;;;;;;10.27;2.25;;;6.60;99.90;;;;;;5081959;28;20033;-82
2023/04/25 06:19:59;;;;;;;8.57;2.30;;;6.70;99.90;;;;;;5065565;28;20637;-85
2023/04/25 06:22:24;;;;;;;8.40;2.55;;;6.80;99.90;;;;;;5058719;28;20039;-86
2023/04/25 06:24:50;;;;;;;14.18;2.60;;;6.90;99.90;;;;;;5069732;28;20392;-84
2023/04/25 06:27:15;;;;;;;10.23;2.20;;;6.90;99.90;;;;;;5064470;28;20638;-84
2023/04/25 06:29:41;;;;;;;7.10;2.25;;;6.90;99.90;;;;;;5050148;28;20036;-84
2023/04/25 06:32:07;;;;;;;9.02;2.70;;;6.90;99.90;;;;;;5064931;28;20405;-84
2023/04/25 06:34:32;;;;;;;5.90;2.80;;;6.90;99.90;;;;;;5054415;28;20035;-84
2023/04/25 06:36:58;;;;;;;7.38;2.30;;;7.00;99.90;;;;;;5070314;28;20113;-84
2023/04/25 06:39:25;;;;;;;9.93;2.38;;;7.10;99.90;;;;;;5063731;28;20496;-83
2023/04/25 06:41:50;;;;;;;6.82;2.20;;;7.10;99.90;;;;;;5062245;28;20560;-83
2023/04/25 06:44:16;;;;;;;8.77;2.47;;;7.20;99.90;;;;;;5070732;28;20043;-84
2023/04/25 06:46:42;;;;;;;8.40;2.05;;;7.20;99.90;;;;;;5059252;28;20385;-83
2023/04/25 06:49:07;;;;;;;11.13;1.92;;;7.10;99.90;;;;;;5047151;28;20123;-84
2023/04/25 06:51:33;;;;;;;7.22;1.98;;;7.10;99.90;;;;;;5063475;28;20044;-83
2023/04/25 06:53:59;;;;;;;5.78;1.80;;;7.10;99.90;;;;;;5047851;28;20122;-84
2023/04/25 06:56:24;;;;;;;9.95;2.13;;;7.10;99.90;;;;;;5046765;28;20043;-84
2023/04/25 06:58:50;;;;;;;10.60;2.13;;;7.00;99.90;;;;;;5069901;28;20484;-83
2023/04/25 07:01:15;;;;;;;8.68;2.20;;;7.00;99.90;;;;;;5059409;28;20040;-83
2023/04/25 07:03:41;;;;;;;8.90;2.03;;;7.10;99.90;;;;;;5044454;28;20037;-83
2023/04/25 07:06:07;;;;;;;7.97;1.88;;;7.00;99.90;;;;;;5066812;28;20040;-83
2023/04/25 07:08:32;;;;;;;6.47;1.95;;;7.10;99.90;;;;;;5049985;28;20115;-83
2023/04/25 07:10:58;;;;;;;6.05;2.20;;;7.20;99.90;;;;;;5065246;28;20047;-84
2023/04/25 07:13:23;;;;;;;7.65;2.05;;;7.30;99.90;;;;;;5073651;28;20039;-83
2023/04/25 07:15:49;;;;;;;8.00;1.95;;;7.50;99.90;;;;;;5065999;28;20455;-83
2023/04/25 07:18:15;;;;;;;8.02;2.42;;;7.70;99.90;;;;;;5074559;28;20036;-83
2023/04/25 07:20:40;;;;;;;9.68;1.77;;;7.90;99.90;;;;;;5063405;28;20047;-83
2023/04/25 07:23:06;;;;;;;8.85;2.00;;;8.10;99.90;;;;;;5043004;28;20424;-83
2023/04/25 07:25:32;;;;;;;6.43;2.25;;;8.20;99.90;;;;;;5064265;28;20043;-85
2023/04/25 07:27:57;;;;;;;7.47;1.73;;;8.20;99.90;;;;;;5067884;28;20447;-83
2023/04/25 07:30:23;;;;;;;5.90;1.67;;;8.20;99.90;;;;;;5070230;28;20042;-83
2023/04/25 07:32:50;;;;;;;11.18;1.92;;;8.20;99.90;;;;;;5065506;28;20032;-83
2023/04/25 07:35:17;;;;;;;7.55;2.28;;;8.20;99.90;;;;;;5060405;28;20036;-83
2023/04/25 07:37:43;;;;;;;4.95;1.60;;;8.30;99.90;;;;;;5068440;28;20276;-83
2023/04/25 07:40:09;;;;;;;7.57;1.63;;;8.40;99.90;;;;;;5062431;28;20036;-83
2023/04/25 07:42:35;;;;;;;6.18;1.70;;;8.60;99.90;;;;;;5040248;28;20032;-83
2023/04/25 07:45:01;;;;;;;7.53;2.25;;;8.60;99.90;;;;;;5068526;28;20085;-83
2023/04/25 07:47:27;;;;;;;5.70;1.80;;;8.70;99.90;;;;;;5062725;28;20059;-83
2023/04/25 07:49:52;;;;;;;5.95;2.00;;;8.70;99.90;;;;;;5067744;28;20032;-83
2023/04/25 07:52:18;;;;;;;6.10;1.85;;;8.80;99.90;;;;;;5063031;28;20032;-83
2023/04/25 07:54:44;;;;;;;7.22;1.75;;;8.90;99.90;;;;;;5054188;28;20040;-83
2023/04/25 07:57:09;;;;;;;7.97;1.80;;;8.90;99.90;;;;;;5064825;28;20036;-83
2023/04/25 07:59:35;;;;;;;4.75;1.27;;;8.90;99.90;;;;;;5069021;28;20048;-83
2023/04/25 08:02:01;;;;;;;8.35;1.75;;;9.10;99.90;;;;;;5068092;28;20054;-83
2023/04/25 08:04:27;;;;;;;5.18;1.63;;;9.20;99.90;;;;;;5054825;28;20028;-83
2023/04/25 08:06:53;;;;;;;5.05;1.60;;;9.20;99.90;;;;;;5050513;28;20407;-83
2023/04/25 08:09:19;;;;;;;7.68;1.70;;;9.30;99.90;;;;;;5051755;28;20503;-83
2023/04/25 08:11:45;;;;;;;11.20;1.80;;;9.50;99.90;;;;;;5045041;28;20049;-83
2023/04/25 08:14:11;;;;;;;7.22;1.67;;;9.70;99.90;;;;;;5046673;28;20068;-83
2023/04/25 08:16:37;;;;;;;6.75;1.77;;;9.70;99.90;;;;;;5060045;28;20223;-83
2023/04/25 08:19:03;;;;;;;9.25;1.67;;;10.00;99.90;;;;;;5068348;28;20173;-82
2023/04/25 08:21:28;;;;;;;6.90;1.50;;;10.10;99.90;;;;;;5054676;28;20047;-83
2023/04/25 08:23:54;;;;;;;7.75;1.92;;;10.20;99.90;;;;;;5062150;28;20068;-83
2023/04/25 08:26:20;;;;;;;4.10;1.50;;;10.00;99.90;;;;;;5048377;28;20097;-83
2023/04/25 08:28:46;;;;;;;9.65;1.48;;;10.20;99.90;;;;;;5068837;28;20043;-83
2023/04/25 08:31:12;;;;;;;4.10;1.10;;;10.30;99.90;;;;;;5066426;28;20465;-83
2023/04/25 08:33:37;;;;;;;2.88;1.02;;;10.30;99.90;;;;;;5073077;28;20059;-83
2023/04/25 08:36:03;;;;;;;3.60;1.20;;;10.30;99.90;;;;;;5067376;28;20555;-84
2023/04/25 08:38:29;;;;;;;3.58;1.20;;;10.20;99.90;;;;;;5061205;28;20074;-83
2023/04/25 08:40:56;;;;;;;7.65;1.50;;;10.10;99.90;;;;;;5056681;28;20043;-83
2023/04/25 08:43:23;;;;;;;7.68;1.67;;;10.10;99.90;;;;;;5065844;28;20032;-83
2023/04/25 08:45:49;;;;;;;3.40;1.10;;;10.10;99.90;;;;;;5061493;28;20082;-83
2023/04/25 08:48:16;;;;;;;5.25;1.60;;;10.50;99.90;;;;;;5069597;28;20036;-83
2023/04/25 08:50:52;;;;;;;4.63;1.33;;;10.60;99.90;;;;;;5068586;28;20068;-83
2023/04/25 08:53:22;;;;;;;5.93;1.70;;;10.70;99.90;;;;;;5053103;28;20453;-83
2023/04/25 08:55:49;;;;;;;5.82;1.50;;;11.20;99.90;;;;;;5052465;28;20040;-83
2023/04/25 08:58:16;;;;;;;5.28;1.45;;;11.50;99.90;;;;;;5071833;28;20061;-83
2023/04/25 09:00:41;;;;;;;4.65;1.55;;;12.00;99.90;;;;;;5051938;28;20032;-84
2023/04/25 09:03:07;;;;;;;3.95;1.67;;;12.30;99.90;;;;;;5072488;28;20523;-84
2023/04/25 09:05:33;;;;;;;7.30;1.48;;;12.80;99.90;;;;;;5068126;28;20031;-83
2023/04/25 09:08:00;;;;;;;5.32;1.45;;;13.10;99.90;;;;;;5066084;28;20036;-83
2023/04/25 09:10:26;;;;;;;4.28;1.33;;;13.30;99.90;;;;;;5070137;28;20044;-83
2023/04/25 09:13:08;;;;;;;7.43;1.50;;;12.70;99.90;;;;;;5058220;28;20523;-84
2023/04/25 09:15:47;;;;;;;7.25;1.70;;;12.40;99.90;;;;;;5071687;28;20032;-84
2023/04/25 09:18:13;;;;;;;4.53;1.38;;;12.20;99.90;;;;;;5037875;28;20090;-83
2023/04/25 09:20:43;;;;;;;6.05;1.73;;;12.00;99.90;;;;;;5052517;28;20500;-83
2023/04/25 09:23:09;;;;;;;3.38;1.20;;;12.20;99.90;;;;;;5057860;28;20550;-84
2023/04/25 09:25:42;;;;;;;4.38;1.88;;;12.20;99.90;;;;;;5071228;28;20044;-83
2023/04/25 09:28:08;;;;;;;5.53;1.65;;;12.40;99.90;;;;;;5042401;28;20044;-83
2023/04/25 09:30:35;;;;;;;3.78;1.25;;;13.10;99.90;;;;;;5053969;28;20488;-83
2023/04/25 09:33:11;;;;;;;3.00;1.20;;;13.10;99.90;;;;;;5068613;28;20032;-83
2023/04/25 09:35:41;;;;;;;4.90;1.40;;;13.30;99.90;;;;;;5051710;28;20036;-83
2023/04/25 09:38:12;;;;;;;4.38;1.58;;;13.40;99.90;;;;;;5059471;28;20043;-83
2023/04/25 09:40:42;;;;;;;5.88;1.60;;;13.10;99.90;;;;;;5060274;28;20044;-84
2023/04/25 09:43:18;;;;;;;4.72;1.25;;;12.30;99.90;;;;;;5056400;28;20091;-84
2023/04/25 09:45:45;;;;;;;4.65;1.40;;;11.30;99.90;;;;;;5056846;28;20130;-84
2023/04/25 09:48:12;;;;;;;2.05;0.80;;;10.50;99.90;;;;;;5058053;28;20041;-84
2023/04/25 09:50:39;;;;;;;3.65;1.08;;;9.80;99.90;;;;;;5065879;28;20051;-84
2023/04/25 09:53:08;;;;;;;3.67;0.90;;;9.30;99.90;;;;;;5055212;28;20501;-83
2023/04/25 09:55:34;;;;;;;3.92;1.00;;;9.00;99.90;;;;;;5053574;28;20039;-83
2023/04/25 09:58:08;;;;;;;2.88;0.90;;;8.80;99.90;;;;;;5061028;28;20404;-84
2023/04/25 10:00:35;;;;;;;2.92;1.10;;;8.60;99.90;;;;;;5057507;28;20037;-83
2023/04/25 10:03:05;;;;;;;2.22;1.20;;;8.30;99.90;;;;;;5059639;28;20040;-84
2023/04/25 10:05:35;;;;;;;5.28;1.20;;;8.10;99.90;;;;;;5067289;28;20066;-83
2023/04/25 10:08:04;;;;;;;6.20;1.15;;;8.20;99.90;;;;;;5062633;28;20487;-83
2023/04/25 10:10:32;;;;;;;4.90;1.45;;;8.30;99.90;;;;;;5043196;28;20382;-84
2023/04/25 10:12:58;;;;;;;3.92;1.15;;;8.70;99.90;;;;;;5078574;28;20095;-84
2023/04/25 10:15:25;;;;;;;4.50;1.50;;;9.60;99.90;;;;;;5062838;28;20044;-84
2023/04/25 10:17:50;;;;;;;3.00;1.10;;;10.30;99.90;;;;;;5060862;28;20507;-83
2023/04/25 10:20:16;;;;;;;4.78;1.23;;;11.20;99.90;;;;;;5070844;28;20044;-84
2023/04/25 10:22:44;;;;;;;2.70;0.98;;;12.10;99.90;;;;;;5067605;28;20032;-85
2023/04/25 10:25:11;;;;;;;6.13;1.50;;;12.90;99.90;;;;;;5063515;28;20493;-86
2023/04/25 10:27:38;;;;;;;5.05;1.40;;;12.90;99.90;;;;;;5060785;28;20037;-86
2023/04/25 10:30:11;;;;;;;6.00;1.52;;;12.70;99.90;;;;;;5066295;28;20051;-86
2023/04/25 10:32:37;;;;;;;7.05;1.40;;;12.40;99.90;;;;;;5042366;28;20397;-86
2023/04/25 10:35:23;;;;;;;4.60;1.25;;;12.10;99.90;;;;;;5058770;28;20047;-84
2023/04/25 10:38:08;;;;;;;6.72;1.55;;;11.50;99.90;;;;;;5069400;28;20492;-85
2023/04/25 10:40:34;;;;;;;2.67;1.23;;;10.60;99.90;;;;;;5059413;28;20369;-86
2023/04/25 10:43:31;;;;;;;3.50;1.30;;;10.30;99.90;;;;;;5061383;28;20028;-84
2023/04/25 10:45:58;;;;;;;4.43;2.55;;;10.20;99.90;;;;;;5044402;28;20046;-85
2023/04/25 10:48:30;;;;;;;5.50;2.58;;;10.00;99.90;;;;;;5027456;28;1042851;-85
2023/04/25 10:51:20;;;;;;;6.18;2.17;;;10.40;99.90;;;;;;5071466;28;20040;-85
2023/04/25 10:53:47;;;;;;;4.20;1.50;;;10.60;99.90;;;;;;5071299;28;20043;-86
2023/04/25 10:56:22;;;;;;;4.43;1.52;;;11.10;99.90;;;;;;5070942;28;20036;-88
2023/04/25 10:58:49;;;;;;;6.03;1.58;;;11.70;99.90;;;;;;5050984;28;20184;-86
2023/04/25 11:01:20;;;;;;;5.47;1.80;;;12.10;99.90;;;;;;5043673;28;20475;-87
2023/04/25 11:03:50;;;;;;;3.60;1.67;;;12.30;99.90;;;;;;5058825;28;20488;-86
2023/04/25 11:06:40;;;;;;;6.40;1.80;;;12.50;99.90;;;;;;5072008;28;20420;-86
2023/04/25 11:09:13;;;;;;;4.75;1.50;;;12.90;99.90;;;;;;5060385;28;20438;-86
2023/04/25 11:11:39;;;;;;;7.87;1.90;;;12.80;99.90;;;;;;5049174;28;20536;-86
2023/04/25 11:14:04;;;;;;;4.95;1.45;;;12.70;99.90;;;;;;5037082;28;20098;-86
2023/04/25 11:16:31;;;;;;;4.13;1.60;;;12.10;99.90;;;;;;5065899;28;20115;-86
2023/04/25 11:18:58;;;;;;;4.45;1.60;;;11.30;99.90;;;;;;5069160;28;20036;-86
2023/04/25 11:21:28;;;;;;;6.05;2.03;;;11.00;99.90;;;;;;5057505;28;20123;-86
2023/04/25 11:23:56;;;;;;;6.68;1.65;;;11.00;99.90;;;;;;5064992;28;20032;-85
2023/04/25 11:26:22;;;;;;;6.97;1.80;;;11.40;99.90;;;;;;5067982;28;20059;-86
2023/04/25 11:28:49;;;;;;;5.03;1.75;;;12.00;99.90;;;;;;5054044;28;20447;-86
2023/04/25 11:31:15;;;;;;;12.32;2.33;;;12.70;99.90;;;;;;5045668;28;20591;-86
2023/04/25 11:33:40;;;;;;;6.43;1.60;;;13.50;99.90;;;;;;5069378;28;20119;-86
2023/04/25 11:36:06;;;;;;;3.50;1.65;;;14.60;99.90;;;;;;5069487;28;20043;-86
2023/04/25 11:38:51;;;;;;;;;;;;;;;;;;;;;
2023/04/25 11:47:38;;;;;;;4.35;1.40;;;15.80;99.90;;;;;;5109697;22;20107;-35
2023/04/25 11:50:07;;;;;;;6.75;1.60;;;15.70;99.90;;;;;;5092666;28;20282;-34
2023/04/25 11:52:40;;;;;;;3.53;1.63;;;15.50;99.90;;;;;;5095022;28;20135;-34
2023/04/25 11:55:07;;;;;;;;;;;15.10;99.90;;;;;;5096145;28;20044;-34
2023/04/25 11:57:33;;;;;;;3.15;1.58;;;14.60;99.90;;;;;;5087171;28;19968;-34
2023/04/25 12:00:11;;;;;;;3.22;1.17;;;14.40;99.90;;;;;;5095979;28;20095;-33
2023/04/25 12:02:40;;;;;;;4.32;1.30;;;14.00;99.90;;;;;;5095317;28;20080;-34
2023/04/25 12:05:10;;;;;;;4.80;1.52;;;13.40;99.90;;;;;;5095558;28;20104;-32
2023/04/25 12:07:38;;;;;;;4.43;1.50;;;12.80;99.90;;;;;;5095361;28;20048;-33
2023/04/25 12:10:12;;;;;;;5.70;1.48;;;12.40;99.90;;;;;;5095248;28;20055;-33
2023/04/25 12:12:40;;;;;;;4.93;1.50;;;12.00;99.90;;;;;;5095134;28;20397;-34
2023/04/25 12:15:15;;;;;;;6.18;1.50;;;11.70;99.90;;;;;;5095095;28;20043;-34
2023/04/25 12:17:45;;;;;;;6.03;1.45;;;11.20;99.90;;;;;;5091902;28;20039;-33
2023/04/25 12:20:13;;;;;;;3.28;1.15;;;11.60;99.90;;;;;;5095224;28;20040;-38
2023/04/25 12:22:46;;;;;;;6.13;1.40;;;12.00;99.90;;;;;;5090920;28;20032;-34
2023/04/25 12:25:44;;;;;;;5.13;1.70;;;12.10;99.90;;;;;;5095741;28;20070;-34
2023/04/25 12:28:27;;;;;;;5.78;1.40;;;12.20;99.90;;;;;;5091558;28;20040;-33
2023/04/25 12:31:06;;;;;;;4.22;1.15;;;12.80;99.90;;;;;;5094912;28;20028;-33
2023/04/25 12:33:34;;;;;;;4.57;1.20;;;13.50;99.90;;;;;;5095530;28;20040;-34
2023/04/25 12:36:10;;;;;;;3.95;1.40;;;14.10;99.90;;;;;;5094840;28;20040;-34
2023/04/25 12:38:40;;;;;;;4.22;1.38;;;14.10;99.90;;;;;;5093954;28;20056;-33
2023/04/25 12:41:07;;;;;;;3.20;1.30;;;13.70;99.90;;;;;;5085668;28;20063;-35
2023/04/25 12:43:33;;;;;;;3.63;1.30;;;13.80;99.90;;;;;;5086729;28;20032;-34
2023/04/25 12:45:59;;;;;;;2.95;1.05;;;13.90;99.90;;;;;;5093295;28;20161;-34
2023/04/25 12:48:25;;;;;;;3.08;1.23;;;14.10;99.90;;;;;;5073830;28;20059;-34
2023/04/25 12:50:52;;;;;;;4.53;1.20;;;14.90;99.90;;;;;;5093605;28;20400;-34
2023/04/25 12:53:20;;;;;;;3.78;1.40;;;15.00;95.00;;;;;;5089347;28;20036;-34
2023/04/25 12:55:47;;;;;;;3.35;1.33;;;15.20;90.40;;;;;;5092201;28;20038;-34
2023/04/25 12:58:17;;;;;;;2.72;1.30;;;15.40;95.20;;;;;;5094859;28;20111;-34
2023/04/25 13:00:43;;;;;;;4.22;1.65;;;16.00;78.80;;;;;;5094963;28;20036;-34